Terminal Aerodrome Forecast
Issued by NWS

Home | Current Version | Previous Version | Text Only | Print | Product List | Glossary On
Versions: 1 2 3 4 5 6 7 8 9 10 11 12
000
FTUS41 KPHI 290539
TAFMIV
TAF
KMIV 290539Z 2906/3006 00000KT P6SM FEW250
     FM291300 19004KT P6SM SCT250
     FM291600 18008KT P6SM SCT035 BKN200
     FM292100 17006KT P6SM VCSH FEW030 OVC060
     FM300000 17003KT P6SM -SHRA OVC030=

USA.gov is the U.S. government's official web portal to all federal, state and local government web resources and services.